sensor_id;sensor_type;location;lat;lon;timestamp;pressure;altitude;pressure_sealevel;temperature;humidity
48553;BME280;34335;51.566;6.994;2022-10-16T00:01:21;100559.88;;;12.57;100.00
48553;BME280;34335;51.566;6.994;2022-10-16T00:03:47;100556.44;;;12.54;100.00
48553;BME280;34335;51.566;6.994;2022-10-16T00:06:14;100548.72;;;12.44;100.00
48553;BME280;34335;51.566;6.994;2022-10-16T00:08:40;100547.84;;;12.45;100.00
48553;BME280;34335;51.566;6.994;2022-10-16T00:11:13;100551.38;;;12.38;100.00
48553;BME280;34335;51.566;6.994;2022-10-16T00:13:41;100562.66;;;12.40;100.00
48553;BME280;34335;51.566;6.994;2022-10-16T00:16:07;100557.38;;;12.46;100.00
48553;BME280;34335;51.566;6.994;2022-10-16T00:21:54;100550.53;;;12.36;100.00
48553;BME280;34335;51.566;6.994;2022-10-16T00:24:20;100553.22;;;12.27;100.00
48553;BME280;34335;51.566;6.994;2022-10-16T00:26:45;100549.75;;;12.28;100.00
48553;BME280;34335;51.566;6.994;2022-10-16T00:29:10;100551.53;;;12.24;100.00
48553;BME280;34335;51.566;6.994;2022-10-16T00:31:36;100556.75;;;12.24;100.00
48553;BME280;34335;51.566;6.994;2022-10-16T00:34:01;100567.09;;;12.32;100.00
48553;BME280;34335;51.566;6.994;2022-10-16T00:36:27;100562.00;;;12.21;100.00
48553;BME280;34335;51.566;6.994;2022-10-16T00:38:54;100569.78;;;12.24;100.00
48553;BME280;34335;51.566;6.994;2022-10-16T00:41:21;100564.66;;;12.15;100.00
48553;BME280;34335;51.566;6.994;2022-10-16T00:43:54;100569.81;;;12.23;100.00
48553;BME280;34335;51.566;6.994;2022-10-16T00:46:36;100566.28;;;12.25;100.00
48553;BME280;34335;51.566;6.994;2022-10-16T00:49:14;100562.88;;;12.19;100.00
48553;BME280;34335;51.566;6.994;2022-10-16T00:51:43;100568.16;;;12.15;100.00
48553;BME280;34335;51.566;6.994;2022-10-16T00:54:22;100574.16;;;12.21;100.00
48553;BME280;34335;51.566;6.994;2022-10-16T00:56:49;100577.59;;;12.24;100.00
48553;BME280;34335;51.566;6.994;2022-10-16T00:59:24;100563.75;;;12.21;100.00
48553;BME280;34335;51.566;6.994;2022-10-16T01:01:51;100566.28;;;12.28;100.00
48553;BME280;34335;51.566;6.994;2022-10-16T01:04:17;100561.16;;;12.19;100.00
48553;BME280;34335;51.566;6.994;2022-10-16T01:09:20;100568.09;;;12.19;100.00
48553;BME280;34335;51.566;6.994;2022-10-16T01:14:46;100565.53;;;12.15;100.00
48553;BME280;34335;51.566;6.994;2022-10-16T01:17:18;100559.44;;;12.15;100.00
48553;BME280;34335;51.566;6.994;2022-10-16T01:23:10;100557.66;;;12.19;100.00
48553;BME280;34335;51.566;6.994;2022-10-16T01:26:13;100574.28;;;12.10;100.00
48553;BME280;34335;51.566;6.994;2022-10-16T01:31:18;100577.75;;;12.07;100.00
48553;BME280;34335;51.566;6.994;2022-10-16T01:34:02;100577.84;;;11.95;100.00
48553;BME280;34335;51.566;6.994;2022-10-16T01:36:35;100563.91;;;12.05;100.00
48553;BME280;34335;51.566;6.994;2022-10-16T01:39:02;100559.47;;;12.12;100.00
48553;BME280;34335;51.566;6.994;2022-10-16T01:41:33;100562.06;;;12.12;100.00
48553;BME280;34335;51.566;6.994;2022-10-16T01:44:06;100565.66;;;12.03;100.00
48553;BME280;34335;51.566;6.994;2022-10-16T01:46:36;100563.09;;;11.91;100.00
48553;BME280;34335;51.566;6.994;2022-10-16T01:49:03;100569.19;;;11.93;100.00
48553;BME280;34335;51.566;6.994;2022-10-16T01:51:29;100560.50;;;11.91;100.00
48553;BME280;34335;51.566;6.994;2022-10-16T01:53:57;100557.88;;;11.98;100.00
48553;BME280;34335;51.566;6.994;2022-10-16T01:56:25;100555.28;;;11.91;100.00
48553;BME280;34335;51.566;6.994;2022-10-16T01:58:56;100554.47;;;11.87;100.00
48553;BME280;34335;51.566;6.994;2022-10-16T02:01:24;100554.47;;;11.85;100.00
48553;BME280;34335;51.566;6.994;2022-10-16T02:03:54;100557.94;;;11.86;100.00
48553;BME280;34335;51.566;6.994;2022-10-16T02:06:21;100557.09;;;11.85;100.00
48553;BME280;34335;51.566;6.994;2022-10-16T02:08:47;100550.94;;;11.90;100.00
48553;BME280;34335;51.566;6.994;2022-10-16T02:11:13;100566.69;;;11.82;100.00
48553;BME280;34335;51.566;6.994;2022-10-16T02:13:48;100575.25;;;11.92;100.00
48553;BME280;34335;51.566;6.994;2022-10-16T02:16:15;100571.00;;;11.81;100.00
48553;BME280;34335;51.566;6.994;2022-10-16T02:18:42;100577.06;;;11.87;100.00
48553;BME280;34335;51.566;6.994;2022-10-16T02:21:23;100582.28;;;11.87;100.00
48553;BME280;34335;51.566;6.994;2022-10-16T02:27:15;100581.13;;;12.19;100.00
48553;BME280;34335;51.566;6.994;2022-10-16T02:29:46;100574.28;;;12.10;100.00
48553;BME280;34335;51.566;6.994;2022-10-16T02:32:17;100577.81;;;12.04;100.00
48553;BME280;34335;51.566;6.994;2022-10-16T02:34:47;100577.59;;;12.24;100.00
48553;BME280;34335;51.566;6.994;2022-10-16T02:37:14;100582.06;;;12.14;100.00
48553;BME280;34335;51.566;6.994;2022-10-16T02:39:41;100577.72;;;12.12;100.00
48553;BME280;34335;51.566;6.994;2022-10-16T02:42:17;100587.28;;;12.11;100.00
48553;BME280;34335;51.566;6.994;2022-10-16T02:44:42;100582.94;;;12.10;100.00
48553;BME280;34335;51.566;6.994;2022-10-16T02:47:08;100582.94;;;12.13;100.00
48553;BME280;34335;51.566;6.994;2022-10-16T02:49:33;100567.38;;;12.04;100.00
48553;BME280;34335;51.566;6.994;2022-10-16T02:51:58;100579.56;;;11.99;100.00
48553;BME280;34335;51.566;6.994;2022-10-16T02:54:23;100578.75;;;11.92;100.00
48553;BME280;34335;51.566;6.994;2022-10-16T02:56:49;100575.09;;;12.12;100.00
48553;BME280;34335;51.566;6.994;2022-10-16T02:59:14;100574.28;;;12.08;100.00
48553;BME280;34335;51.566;6.994;2022-10-16T03:01:39;100568.25;;;12.06;100.00
48553;BME280;34335;51.566;6.994;2022-10-16T03:04:05;100578.59;;;12.09;100.00
48553;BME280;34335;51.566;6.994;2022-10-16T03:06:30;100583.84;;;12.11;100.00
48553;BME280;34335;51.566;6.994;2022-10-16T03:08:55;100586.38;;;12.17;100.00
48553;BME280;34335;51.566;6.994;2022-10-16T03:11:20;100579.56;;;12.02;100.00
48553;BME280;34335;51.566;6.994;2022-10-16T03:13:46;100584.63;;;12.18;100.00
48553;BME280;34335;51.566;6.994;2022-10-16T03:16:11;100588.16;;;12.10;100.00
48553;BME280;34335;51.566;6.994;2022-10-16T03:18:36;100590.72;;;12.17;100.00
48553;BME280;34335;51.566;6.994;2022-10-16T03:21:02;100594.16;;;12.19;100.00
48553;BME280;34335;51.566;6.994;2022-10-16T03:23:27;100579.34;;;12.24;100.00
48553;BME280;34335;51.566;6.994;2022-10-16T03:25:53;100586.38;;;12.17;100.00
48553;BME280;34335;51.566;6.994;2022-10-16T03:28:19;100580.38;;;12.09;100.00
48553;BME280;34335;51.566;6.994;2022-10-16T03:30:44;100579.34;;;12.22;100.00
48553;BME280;34335;51.566;6.994;2022-10-16T03:33:09;100578.47;;;12.26;100.00
48553;BME280;34335;51.566;6.994;2022-10-16T03:35:35;100582.84;;;12.23;100.00
48553;BME280;34335;51.566;6.994;2022-10-16T03:38:00;100583.72;;;12.22;100.00
48553;BME280;34335;51.566;6.994;2022-10-16T03:40:25;100572.38;;;12.24;100.00
48553;BME280;34335;51.566;6.994;2022-10-16T03:42:51;100580.31;;;12.15;100.00
48553;BME280;34335;51.566;6.994;2022-10-16T03:45:16;100571.44;;;12.33;100.00
48553;BME280;34335;51.566;6.994;2022-10-16T03:47:41;100576.75;;;12.22;100.00
48553;BME280;34335;51.566;6.994;2022-10-16T03:50:07;100576.81;;;12.16;100.00
48553;BME280;34335;51.566;6.994;2022-10-16T03:52:32;100575.00;;;12.24;100.00
48553;BME280;34335;51.566;6.994;2022-10-16T03:54:58;100581.13;;;12.19;100.00
48553;BME280;34335;51.566;6.994;2022-10-16T03:57:23;100595.03;;;12.18;100.00
48553;BME280;34335;51.566;6.994;2022-10-16T03:59:48;100601.97;;;12.22;100.00
48553;BME280;34335;51.566;6.994;2022-10-16T04:02:13;100608.91;;;12.23;100.00
48553;BME280;34335;51.566;6.994;2022-10-16T04:04:39;100609.84;;;12.17;100.00
48553;BME280;34335;51.566;6.994;2022-10-16T04:07:04;100609.06;;;12.06;100.00
48553;BME280;34335;51.566;6.994;2022-10-16T04:09:29;100603.81;;;12.07;100.00
48553;BME280;34335;51.566;6.994;2022-10-16T04:11:55;100596.78;;;12.19;100.00
48553;BME280;34335;51.566;6.994;2022-10-16T04:14:20;100600.34;;;12.08;100.00
48553;BME280;34335;51.566;6.994;2022-10-16T04:16:45;100604.59;;;12.20;100.00
48553;BME280;34335;51.566;6.994;2022-10-16T04:19:11;100609.91;;;12.11;100.00
48553;BME280;34335;51.566;6.994;2022-10-16T04:21:36;100611.63;;;12.10;100.00
48553;BME280;34335;51.566;6.994;2022-10-16T04:24:02;100609.91;;;12.08;100.00
48553;BME280;34335;51.566;6.994;2022-10-16T04:26:28;100616.81;;;12.13;100.00
48553;BME280;34335;51.566;6.994;2022-10-16T04:28:53;100625.53;;;12.09;100.00
48553;BME280;34335;51.566;6.994;2022-10-16T04:31:19;100616.78;;;12.15;100.00
48553;BME280;34335;51.566;6.994;2022-10-16T04:33:45;100624.69;;;12.07;100.00
48553;BME280;34335;51.566;6.994;2022-10-16T04:36:10;100632.47;;;12.12;100.00
48553;BME280;34335;51.566;6.994;2022-10-16T04:38:35;100633.38;;;12.05;100.00
48553;BME280;34335;51.566;6.994;2022-10-16T04:41:03;100629.09;;;11.99;100.00
48553;BME280;34335;51.566;6.994;2022-10-16T04:43:28;100629.88;;;12.10;100.00
48553;BME280;34335;51.566;6.994;2022-10-16T04:45:53;100639.41;;;12.13;100.00
48553;BME280;34335;51.566;6.994;2022-10-16T04:48:19;100641.28;;;11.98;100.00
48553;BME280;34335;51.566;6.994;2022-10-16T04:50:45;100646.47;;;11.98;100.00
48553;BME280;34335;51.566;6.994;2022-10-16T04:53:11;100640.41;;;11.92;100.00
48553;BME280;34335;51.566;6.994;2022-10-16T04:55:36;100644.75;;;11.97;100.00
48553;BME280;34335;51.566;6.994;2022-10-16T04:58:02;100658.56;;;12.09;100.00
48553;BME280;34335;51.566;6.994;2022-10-16T05:00:27;100653.31;;;12.13;100.00
48553;BME280;34335;51.566;6.994;2022-10-16T05:02:52;100652.50;;;12.04;100.00
48553;BME280;34335;51.566;6.994;2022-10-16T05:05:18;100650.66;;;12.20;100.00
48553;BME280;34335;51.566;6.994;2022-10-16T05:07:45;100656.00;;;12.01;100.00
48553;BME280;34335;51.566;6.994;2022-10-16T05:10:10;100662.06;;;12.08;100.00
48553;BME280;34335;51.566;6.994;2022-10-16T05:12:36;100661.25;;;11.98;100.00
48553;BME280;34335;51.566;6.994;2022-10-16T05:15:01;100667.31;;;12.02;100.00
48553;BME280;34335;51.566;6.994;2022-10-16T05:17:26;100658.63;;;11.98;100.00
48553;BME280;34335;51.566;6.994;2022-10-16T05:19:52;100673.38;;;12.02;100.00
48553;BME280;34335;51.566;6.994;2022-10-16T05:22:18;100684.69;;;12.01;100.00
48553;BME280;34335;51.566;6.994;2022-10-16T05:24:43;100669.00;;;12.06;100.00
48553;BME280;34335;51.566;6.994;2022-10-16T05:27:09;100669.91;;;12.00;100.00
48553;BME280;34335;51.566;6.994;2022-10-16T05:29:35;100683.78;;;12.07;100.00
48553;BME280;34335;51.566;6.994;2022-10-16T05:32:01;100688.16;;;12.03;100.00
48553;BME280;34335;51.566;6.994;2022-10-16T05:34:26;100694.25;;;11.99;100.00
48553;BME280;34335;51.566;6.994;2022-10-16T05:36:51;100686.44;;;11.99;100.00
48553;BME280;34335;51.566;6.994;2022-10-16T05:39:17;100688.91;;;12.18;100.00
48553;BME280;34335;51.566;6.994;2022-10-16T05:41:42;100692.41;;;12.17;100.00
48553;BME280;34335;51.566;6.994;2022-10-16T05:44:08;100690.75;;;12.06;100.00
48553;BME280;34335;51.566;6.994;2022-10-16T05:46:33;100693.28;;;12.12;100.00
48553;BME280;34335;51.566;6.994;2022-10-16T05:48:59;100701.22;;;12.02;100.00
48553;BME280;34335;51.566;6.994;2022-10-16T05:51:24;100697.72;;;11.95;100.00
48553;BME280;34335;51.566;6.994;2022-10-16T05:53:49;100695.97;;;12.03;100.00
48553;BME280;34335;51.566;6.994;2022-10-16T05:56:15;100705.50;;;12.06;100.00
48553;BME280;34335;51.566;6.994;2022-10-16T05:58:41;100708.16;;;11.92;100.00
48553;BME280;34335;51.566;6.994;2022-10-16T06:01:10;100718.59;;;11.92;100.00
48553;BME280;34335;51.566;6.994;2022-10-16T06:03:37;100720.34;;;11.97;100.00
48553;BME280;34335;51.566;6.994;2022-10-16T06:06:14;100725.53;;;11.96;100.00
48553;BME280;34335;51.566;6.994;2022-10-16T06:08:40;100727.25;;;11.97;100.00
48553;BME280;34335;51.566;6.994;2022-10-16T06:11:09;100737.69;;;11.94;100.00
48553;BME280;34335;51.566;6.994;2022-10-16T06:13:34;100739.41;;;11.93;100.00
48553;BME280;34335;51.566;6.994;2022-10-16T06:16:01;100742.03;;;11.98;100.00
48553;BME280;34335;51.566;6.994;2022-10-16T06:18:28;100744.63;;;11.93;100.00
48553;BME280;34335;51.566;6.994;2022-10-16T06:20:54;100741.19;;;11.93;100.00
48553;BME280;34335;51.566;6.994;2022-10-16T06:23:20;100739.44;;;11.95;100.00
48553;BME280;34335;51.566;6.994;2022-10-16T06:25:45;100729.06;;;11.85;100.00
48553;BME280;34335;51.566;6.994;2022-10-16T06:28:10;100741.22;;;11.83;100.00
48553;BME280;34335;51.566;6.994;2022-10-16T06:30:36;100742.91;;;11.94;100.00
48553;BME280;34335;51.566;6.994;2022-10-16T06:33:01;100745.56;;;11.88;100.00
48553;BME280;34335;51.566;6.994;2022-10-16T06:35:26;100753.34;;;11.91;100.00
48553;BME280;34335;51.566;6.994;2022-10-16T06:37:53;100759.41;;;12.02;100.00
48553;BME280;34335;51.566;6.994;2022-10-16T06:40:18;100762.88;;;12.01;100.00
48553;BME280;34335;51.566;6.994;2022-10-16T06:42:44;100772.44;;;11.99;100.00
48553;BME280;34335;51.566;6.994;2022-10-16T06:45:09;100774.19;;;12.02;100.00
48553;BME280;34335;51.566;6.994;2022-10-16T06:47:35;100778.56;;;11.90;100.00
48553;BME280;34335;51.566;6.994;2022-10-16T06:50:00;100780.22;;;12.04;100.00
48553;BME280;34335;51.566;6.994;2022-10-16T06:52:28;100781.13;;;11.98;100.00
48553;BME280;34335;51.566;6.994;2022-10-16T06:54:53;100801.97;;;12.04;100.00
48553;BME280;34335;51.566;6.994;2022-10-16T07:00:58;100807.19;;;11.99;100.00
48553;BME280;34335;51.566;6.994;2022-10-16T07:03:24;100811.50;;;12.07;100.00
48553;BME280;34335;51.566;6.994;2022-10-16T07:05:49;100809.78;;;11.93;100.00
48553;BME280;34335;51.566;6.994;2022-10-16T07:08:14;100818.47;;;12.05;100.00
48553;BME280;34335;51.566;6.994;2022-10-16T07:10:40;100828.00;;;12.06;100.00
48553;BME280;34335;51.566;6.994;2022-10-16T07:13:05;100837.56;;;12.04;100.00
48553;BME280;34335;51.566;6.994;2022-10-16T07:15:32;100843.69;;;11.99;100.00
48553;BME280;34335;51.566;6.994;2022-10-16T07:17:57;100851.47;;;12.06;100.00
48553;BME280;34335;51.566;6.994;2022-10-16T07:20:23;100849.78;;;12.02;100.00
48553;BME280;34335;51.566;6.994;2022-10-16T07:22:48;100854.94;;;12.08;100.00
48553;BME280;34335;51.566;6.994;2022-10-16T07:25:13;100850.56;;;12.14;100.00
48553;BME280;34335;51.566;6.994;2022-10-16T07:27:39;100861.81;;;12.23;100.00
48553;BME280;34335;51.566;6.994;2022-10-16T07:30:05;100857.47;;;12.23;100.00
48553;BME280;34335;51.566;6.994;2022-10-16T07:32:31;100861.84;;;12.21;100.00
48553;BME280;34335;51.566;6.994;2022-10-16T07:34:56;100864.44;;;12.23;100.00
48553;BME280;34335;51.566;6.994;2022-10-16T07:37:21;100867.91;;;12.25;100.00
48553;BME280;34335;51.566;6.994;2022-10-16T07:39:47;100862.56;;;12.42;100.00
48553;BME280;34335;51.566;6.994;2022-10-16T07:42:12;100864.34;;;12.38;100.00
48553;BME280;34335;51.566;6.994;2022-10-16T07:44:37;100869.47;;;12.51;100.00
48553;BME280;34335;51.566;6.994;2022-10-16T07:47:03;100879.94;;;12.47;100.00
48553;BME280;34335;51.566;6.994;2022-10-16T07:49:28;100882.44;;;12.68;100.00
48553;BME280;34335;51.566;6.994;2022-10-16T07:51:53;100887.53;;;12.83;100.00
48553;BME280;34335;51.566;6.994;2022-10-16T07:54:19;100893.50;;;12.99;100.00
48553;BME280;34335;51.566;6.994;2022-10-16T07:56:44;100897.81;;;13.02;100.00
48553;BME280;34335;51.566;6.994;2022-10-16T07:59:09;100908.19;;;13.13;100.00
48553;BME280;34335;51.566;6.994;2022-10-16T08:01:34;100916.88;;;13.16;100.00
48553;BME280;34335;51.566;6.994;2022-10-16T08:04:00;100909.78;;;13.29;100.00
48553;BME280;34335;51.566;6.994;2022-10-16T08:06:25;100913.22;;;13.36;100.00
48553;BME280;34335;51.566;6.994;2022-10-16T08:08:50;100919.41;;;13.25;100.00
48553;BME280;34335;51.566;6.994;2022-10-16T08:11:16;100914.88;;;13.48;100.00
48553;BME280;34335;51.566;6.994;2022-10-16T08:13:41;100920.97;;;13.47;100.00
48553;BME280;34335;51.566;6.994;2022-10-16T08:16:07;100926.91;;;13.64;100.00
48553;BME280;34335;51.566;6.994;2022-10-16T08:18:42;100916.50;;;13.58;100.00
48553;BME280;34335;51.566;6.994;2022-10-16T08:21:13;100923.22;;;13.81;100.00
48553;BME280;34335;51.566;6.994;2022-10-16T08:23:39;100923.25;;;13.79;100.00
48553;BME280;34335;51.566;6.994;2022-10-16T08:26:06;100944.03;;;13.92;100.00
48553;BME280;34335;51.566;6.994;2022-10-16T08:28:32;100950.91;;;14.00;100.00
48553;BME280;34335;51.566;6.994;2022-10-16T08:31:24;100950.00;;;14.05;100.00
48553;BME280;34335;51.566;6.994;2022-10-16T08:33:51;100945.69;;;14.02;100.00
48553;BME280;34335;51.566;6.994;2022-10-16T08:36:17;100969.00;;;14.21;100.00
48553;BME280;34335;51.566;6.994;2022-10-16T08:38:42;100967.84;;;14.45;100.00
48553;BME280;34335;51.566;6.994;2022-10-16T08:41:29;100975.63;;;14.48;100.00
48553;BME280;34335;51.566;6.994;2022-10-16T08:49:25;100973.56;;;14.75;100.00
48553;BME280;34335;51.566;6.994;2022-10-16T08:51:50;100987.41;;;14.83;100.00
48553;BME280;34335;51.566;6.994;2022-10-16T08:54:36;100990.75;;;14.93;100.00
48553;BME280;34335;51.566;6.994;2022-10-16T08:57:25;100986.56;;;14.81;100.00
48553;BME280;34335;51.566;6.994;2022-10-16T09:00:00;100990.75;;;14.94;100.00
48553;BME280;34335;51.566;6.994;2022-10-16T09:08:10;100996.91;;;14.90;100.00
48553;BME280;34335;51.566;6.994;2022-10-16T09:13:23;101000.19;;;15.06;98.22
48553;BME280;34335;51.566;6.994;2022-10-16T09:21:36;101017.31;;;15.29;97.07
48553;BME280;34335;51.566;6.994;2022-10-16T09:24:15;101014.84;;;15.18;98.03
48553;BME280;34335;51.566;6.994;2022-10-16T09:26:41;101026.19;;;15.19;96.77
48553;BME280;34335;51.566;6.994;2022-10-16T09:29:10;101018.88;;;15.39;96.96
48553;BME280;34335;51.566;6.994;2022-10-16T09:31:37;101013.53;;;15.44;96.99
48553;BME280;34335;51.566;6.994;2022-10-16T09:34:03;101023.59;;;15.70;96.32
48553;BME280;34335;51.566;6.994;2022-10-16T09:36:43;101018.19;;;15.81;94.97
48553;BME280;34335;51.566;6.994;2022-10-16T09:39:10;101019.78;;;15.92;95.35
48553;BME280;34335;51.566;6.994;2022-10-16T09:41:42;101010.13;;;15.94;96.24
48553;BME280;34335;51.566;6.994;2022-10-16T09:44:19;101021.28;;;16.05;93.89
48553;BME280;34335;51.566;6.994;2022-10-16T09:46:46;101018.25;;;16.27;93.59
48553;BME280;34335;51.566;6.994;2022-10-16T09:49:23;101031.56;;;16.16;92.01
48553;BME280;34335;51.566;6.994;2022-10-16T09:51:49;101026.53;;;16.05;91.35
48553;BME280;34335;51.566;6.994;2022-10-16T09:54:18;101033.19;;;16.23;92.17
48553;BME280;34335;51.566;6.994;2022-10-16T09:56:44;101031.22;;;16.34;90.54
48553;BME280;34335;51.566;6.994;2022-10-16T09:59:21;101027.25;;;16.57;91.29
48553;BME280;34335;51.566;6.994;2022-10-16T10:01:50;101024.63;;;16.59;91.72
48553;BME280;34335;51.566;6.994;2022-10-16T10:04:21;101025.38;;;16.64;89.36
48553;BME280;34335;51.566;6.994;2022-10-16T10:06:49;101023.72;;;16.58;91.41
48553;BME280;34335;51.566;6.994;2022-10-16T10:09:21;101024.16;;;16.36;91.08
48553;BME280;34335;51.566;6.994;2022-10-16T10:14:19;101034.13;;;16.63;89.06
48553;BME280;34335;51.566;6.994;2022-10-16T10:16:45;101020.31;;;16.97;89.32
48553;BME280;34335;51.566;6.994;2022-10-16T10:19:23;101025.22;;;17.12;87.31
48553;BME280;34335;51.566;6.994;2022-10-16T10:21:52;101034.34;;;17.34;86.72
48553;BME280;34335;51.566;6.994;2022-10-16T10:24:18;101032.84;;;17.23;85.48
48553;BME280;34335;51.566;6.994;2022-10-16T10:29:27;101031.75;;;17.68;85.94
48553;BME280;34335;51.566;6.994;2022-10-16T10:32:12;101035.44;;;17.96;81.03
48553;BME280;34335;51.566;6.994;2022-10-16T10:37:42;101023.97;;;17.64;83.35
48553;BME280;34335;51.566;6.994;2022-10-16T10:46:16;101025.88;;;17.93;83.39
48553;BME280;34335;51.566;6.994;2022-10-16T10:54:37;101037.06;;;17.65;83.88
48553;BME280;34335;51.566;6.994;2022-10-16T10:57:21;101038.75;;;17.69;82.43
48553;BME280;34335;51.566;6.994;2022-10-16T11:02:40;101032.34;;;18.46;83.25
48553;BME280;34335;51.566;6.994;2022-10-16T11:07:56;101031.69;;;18.99;80.45
48553;BME280;34335;51.566;6.994;2022-10-16T11:10:30;101034.25;;;19.00;76.20
48553;BME280;34335;51.566;6.994;2022-10-16T11:13:09;101031.84;;;18.63;80.72
48553;BME280;34335;51.566;6.994;2022-10-16T11:15:37;101041.84;;;18.51;76.90
48553;BME280;34335;51.566;6.994;2022-10-16T11:18:30;101038.16;;;18.87;79.22
48553;BME280;34335;51.566;6.994;2022-10-16T11:21:05;101042.56;;;18.57;76.39
48553;BME280;34335;51.566;6.994;2022-10-16T11:23:46;101032.66;;;18.96;79.48
48553;BME280;34335;51.566;6.994;2022-10-16T11:26:19;101039.66;;;18.97;77.43
48553;BME280;34335;51.566;6.994;2022-10-16T11:28:50;101044.56;;;18.78;75.42
48553;BME280;34335;51.566;6.994;2022-10-16T11:31:36;101048.66;;;18.27;75.06
48553;BME280;34335;51.566;6.994;2022-10-16T11:36:53;101054.03;;;18.56;76.76
48553;BME280;34335;51.566;6.994;2022-10-16T11:39:25;101049.88;;;18.77;79.54
48553;BME280;34335;51.566;6.994;2022-10-16T11:42:01;101049.41;;;18.62;78.07
48553;BME280;34335;51.566;6.994;2022-10-16T11:49:41;101048.84;;;19.12;76.69
48553;BME280;34335;51.566;6.994;2022-10-16T11:52:13;101052.53;;;18.77;76.21
48553;BME280;34335;51.566;6.994;2022-10-16T11:55:01;101054.88;;;18.86;75.75
48553;BME280;34335;51.566;6.994;2022-10-16T11:57:32;101053.63;;;19.55;79.39
48553;BME280;34335;51.566;6.994;2022-10-16T12:00:09;101059.03;;;19.23;72.48
48553;BME280;34335;51.566;6.994;2022-10-16T12:05:57;101066.22;;;19.73;75.77
48553;BME280;34335;51.566;6.994;2022-10-16T12:08:26;101066.69;;;19.86;70.04
48553;BME280;34335;51.566;6.994;2022-10-16T12:11:06;101074.84;;;20.54;70.90
48553;BME280;34335;51.566;6.994;2022-10-16T12:13:40;101069.88;;;19.96;80.66
48553;BME280;34335;51.566;6.994;2022-10-16T12:18:41;101079.31;;;20.29;72.74
48553;BME280;34335;51.566;6.994;2022-10-16T12:21:08;101086.38;;;19.76;72.04
48553;BME280;34335;51.566;6.994;2022-10-16T12:23:37;101076.16;;;19.65;69.61
48553;BME280;34335;51.566;6.994;2022-10-16T12:26:04;101074.38;;;20.19;75.03
48553;BME280;34335;51.566;6.994;2022-10-16T12:28:31;101064.44;;;20.26;73.14
48553;BME280;34335;51.566;6.994;2022-10-16T12:31:05;101067.91;;;20.77;69.64
48553;BME280;34335;51.566;6.994;2022-10-16T12:33:36;101064.19;;;21.05;72.21
48553;BME280;34335;51.566;6.994;2022-10-16T12:36:13;101067.69;;;21.06;74.03
48553;BME280;34335;51.566;6.994;2022-10-16T12:38:47;101069.47;;;20.58;68.45
48553;BME280;34335;51.566;6.994;2022-10-16T12:41:31;101077.06;;;19.92;68.43
48553;BME280;34335;51.566;6.994;2022-10-16T12:43:57;101079.78;;;19.62;68.42
48553;BME280;34335;51.566;6.994;2022-10-16T12:51:40;101079.69;;;19.92;72.44
48553;BME280;34335;51.566;6.994;2022-10-16T13:02:35;101077.75;;;20.72;66.17
48553;BME280;34335;51.566;6.994;2022-10-16T13:08:23;101074.16;;;20.73;72.05
48553;BME280;34335;51.566;6.994;2022-10-16T13:16:33;101071.78;;;21.57;63.27
48553;BME280;34335;51.566;6.994;2022-10-16T13:19:32;101084.94;;;21.38;63.10
48553;BME280;34335;51.566;6.994;2022-10-16T13:22:13;101090.41;;;21.56;60.51
48553;BME280;34335;51.566;6.994;2022-10-16T13:25:02;101076.00;;;21.63;63.34
48553;BME280;34335;51.566;6.994;2022-10-16T13:28:27;101078.97;;;21.77;58.84
48553;BME280;34335;51.566;6.994;2022-10-16T13:30:38;101096.78;;;21.06;59.64
48553;BME280;34335;51.566;6.994;2022-10-16T13:33:33;101088.31;;;21.64;59.66
48553;BME280;34335;51.566;6.994;2022-10-16T13:36:00;101096.66;;;21.31;61.47
48553;BME280;34335;51.566;6.994;2022-10-16T13:38:29;101085.19;;;21.97;65.86
48553;BME280;34335;51.566;6.994;2022-10-16T13:41:04;101110.31;;;21.20;63.50
48553;BME280;34335;51.566;6.994;2022-10-16T13:43:45;101109.22;;;21.02;66.11
48553;BME280;34335;51.566;6.994;2022-10-16T13:46:14;101112.19;;;20.45;65.97
48553;BME280;34335;51.566;6.994;2022-10-16T13:48:40;101105.56;;;20.82;69.11
48553;BME280;34335;51.566;6.994;2022-10-16T13:51:13;101105.56;;;20.08;63.58
48553;BME280;34335;51.566;6.994;2022-10-16T13:53:39;101101.56;;;20.96;64.26
48553;BME280;34335;51.566;6.994;2022-10-16T13:56:10;101106.06;;;20.68;66.79
48553;BME280;34335;51.566;6.994;2022-10-16T13:58:35;101104.81;;;21.02;68.08
48553;BME280;34335;51.566;6.994;2022-10-16T14:01:03;101099.38;;;21.29;69.19
48553;BME280;34335;51.566;6.994;2022-10-16T14:03:31;101096.19;;;21.43;69.79
48553;BME280;34335;51.566;6.994;2022-10-16T14:06:03;101106.72;;;20.99;68.96
48553;BME280;34335;51.566;6.994;2022-10-16T14:08:29;101095.94;;;21.50;69.07
48553;BME280;34335;51.566;6.994;2022-10-16T14:10:57;101096.53;;;21.56;65.19
48553;BME280;34335;51.566;6.994;2022-10-16T14:13:33;101095.03;;;22.14;68.39
48553;BME280;34335;51.566;6.994;2022-10-16T14:16:04;101100.44;;;22.32;63.61
48553;BME280;34335;51.566;6.994;2022-10-16T14:18:30;101114.28;;;21.54;60.57
48553;BME280;34335;51.566;6.994;2022-10-16T14:21:03;101120.81;;;21.68;66.32
48553;BME280;34335;51.566;6.994;2022-10-16T14:23:31;101125.56;;;21.13;66.65
48553;BME280;34335;51.566;6.994;2022-10-16T14:28:36;101122.97;;;20.39;67.38
48553;BME280;34335;51.566;6.994;2022-10-16T14:31:02;101122.09;;;19.86;66.64
48553;BME280;34335;51.566;6.994;2022-10-16T14:33:45;101131.06;;;20.60;74.91
48553;BME280;34335;51.566;6.994;2022-10-16T14:36:13;101127.59;;;20.58;68.63
48553;BME280;34335;51.566;6.994;2022-10-16T14:38:43;101124.72;;;20.64;71.75